createdAt,value
2023-08-11T19:58:56.627Z,23.65
2023-08-11T19:59:59.006Z,23.65
2023-08-11T20:01:01.308Z,23.61
2023-08-11T20:02:03.892Z,23.62
2023-08-11T20:03:08.450Z,23.58
2023-08-11T20:04:10.676Z,23.58
2023-08-11T20:05:12.934Z,23.58
2023-08-11T20:06:15.103Z,23.57
2023-08-11T20:07:17.132Z,23.54
2023-08-11T20:08:19.379Z,23.54
2023-08-11T20:09:23.557Z,23.53
2023-08-11T20:10:25.847Z,23.54
2023-08-11T20:11:27.911Z,23.51
2023-08-11T20:12:29.890Z,23.49
2023-08-11T20:13:31.969Z,23.50
2023-08-11T20:14:34.012Z,23.45
2023-08-11T20:15:36.153Z,23.44
2023-08-11T20:16:38.152Z,23.43
2023-08-11T20:17:40.256Z,23.42
2023-08-11T20:18:42.316Z,23.42
2023-08-11T20:19:44.311Z,23.42
2023-08-11T20:20:46.563Z,23.42
2023-08-11T20:21:49.501Z,23.42
2023-08-11T20:22:51.802Z,23.39
2023-08-11T20:23:53.829Z,23.41
2023-08-11T20:24:55.910Z,23.40
2023-08-11T20:25:58.064Z,23.39
2023-08-11T20:27:00.195Z,23.34
2023-08-11T20:28:02.210Z,23.32
2023-08-11T20:29:04.540Z,23.30
2023-08-11T20:30:07.468Z,23.26
2023-08-11T20:31:09.584Z,23.26
2023-08-11T20:32:11.727Z,23.23
2023-08-11T20:33:13.763Z,23.25
2023-08-11T20:34:15.990Z,23.22
2023-08-11T20:35:18.376Z,23.19
2023-08-11T20:36:20.401Z,23.18
2023-08-11T20:37:22.499Z,23.16
2023-08-11T20:38:24.591Z,23.18
2023-08-11T20:39:27.440Z,23.16
2023-08-11T20:40:29.536Z,23.16
2023-08-11T20:41:31.566Z,23.17
2023-08-11T20:42:35.093Z,23.15
2023-08-11T20:43:37.199Z,23.14
2023-08-11T20:44:39.278Z,23.12
2023-08-11T20:45:41.344Z,23.12
2023-08-11T20:46:43.588Z,23.12
2023-08-11T20:47:45.710Z,23.07
2023-08-11T20:48:47.825Z,23.07
2023-08-11T20:49:50.078Z,23.06
2023-08-11T20:50:52.725Z,23.05
2023-08-11T20:51:57.055Z,23.05
2023-08-11T20:52:59.175Z,23.04
2023-08-11T20:54:01.137Z,23.03
2023-08-11T20:55:03.741Z,22.99
2023-08-11T20:56:06.157Z,22.96
2023-08-11T20:57:10.004Z,22.94
2023-08-11T20:58:12.290Z,22.91
2023-08-11T20:59:14.314Z,22.90
2023-08-11T21:00:16.659Z,22.86
2023-08-11T21:01:18.822Z,22.86
2023-08-11T21:02:20.851Z,22.84
2023-08-11T21:03:22.949Z,22.82
2023-08-11T21:04:25.162Z,22.81
2023-08-11T21:05:27.260Z,22.78
2023-08-11T21:06:32.173Z,22.77
2023-08-11T21:07:34.382Z,22.75
2023-08-11T21:08:36.430Z,22.74
2023-08-11T21:09:38.462Z,22.70
2023-08-11T21:10:46.705Z,22.68
2023-08-11T21:11:49.348Z,22.66
2023-08-11T21:12:52.065Z,22.64
2023-08-11T21:13:56.006Z,22.62
2023-08-11T21:14:58.035Z,22.61
2023-08-11T21:16:00.047Z,22.58
2023-08-11T21:17:03.640Z,22.58
2023-08-11T21:18:07.278Z,22.58
2023-08-11T21:19:09.335Z,22.60
2023-08-11T21:20:11.831Z,22.62
2023-08-11T21:21:13.993Z,22.61
2023-08-11T21:22:16.137Z,22.71
2023-08-11T21:23:20.387Z,22.75
2023-08-11T21:24:22.618Z,22.76
2023-08-11T21:25:24.690Z,22.78
2023-08-11T21:26:26.871Z,22.77
2023-08-11T21:27:29.250Z,22.74
2023-08-11T21:28:31.275Z,22.70
2023-08-11T21:29:33.340Z,22.66
2023-08-11T21:30:35.538Z,22.67
2023-08-11T21:31:37.579Z,22.65
2023-08-11T21:32:39.718Z,22.65
2023-08-11T21:33:41.812Z,22.62
2023-08-11T21:34:43.919Z,22.58
2023-08-11T21:35:45.948Z,22.53
2023-08-11T21:36:47.955Z,22.52
2023-08-11T21:37:50.421Z,22.48
2023-08-11T21:38:52.421Z,22.45
2023-08-11T21:39:54.429Z,22.39
2023-08-11T21:40:56.890Z,22.33
2023-08-11T21:41:58.877Z,22.25
2023-08-11T21:43:01.053Z,22.21
2023-08-11T21:44:04.061Z,22.16
2023-08-11T21:45:06.704Z,22.11
2023-08-11T21:46:08.720Z,22.08
2023-08-11T21:47:11.093Z,22.06
2023-08-11T21:48:13.462Z,22.03
2023-08-11T21:49:15.548Z,22.02
2023-08-11T21:50:17.589Z,21.96
2023-08-11T21:51:19.760Z,21.95
2023-08-11T21:52:21.806Z,21.92
2023-08-11T21:53:24.174Z,21.92
2023-08-11T21:54:26.390Z,21.92
2023-08-11T21:55:28.349Z,21.92
2023-08-11T21:56:30.529Z,21.92
2023-08-11T21:57:32.870Z,21.85
2023-08-11T21:58:35.456Z,21.85
2023-08-11T21:59:42.200Z,21.85
2023-08-11T22:00:45.175Z,21.83
2023-08-11T22:01:47.343Z,21.79
2023-08-11T22:02:49.366Z,21.76
2023-08-11T22:03:51.469Z,21.74
2023-08-11T22:04:53.512Z,21.71
2023-08-11T22:05:55.786Z,21.67
2023-08-11T22:06:57.978Z,21.62
2023-08-11T22:08:00.089Z,21.60
2023-08-11T22:09:04.101Z,21.58
2023-08-11T22:10:06.587Z,21.57
2023-08-11T22:11:15.688Z,21.58
2023-08-11T22:12:24.602Z,21.60
2023-08-11T22:13:26.692Z,21.58
2023-08-11T22:14:28.824Z,21.57
2023-08-11T22:15:30.883Z,21.56
2023-08-11T22:16:34.544Z,21.55
2023-08-11T22:17:36.665Z,21.51
2023-08-11T22:18:38.721Z,21.49
2023-08-11T22:19:46.864Z,21.46
2023-08-11T22:20:48.934Z,21.45
2023-08-11T22:21:51.855Z,21.41
2023-08-11T22:22:53.828Z,21.40
2023-08-11T22:23:55.939Z,21.40
2023-08-11T22:25:01.646Z,21.39
2023-08-11T22:26:03.772Z,21.37
2023-08-11T22:27:06.096Z,21.36
2023-08-11T22:28:08.424Z,21.33
2023-08-11T22:29:10.404Z,21.31
2023-08-11T22:30:13.698Z,21.28
2023-08-11T22:31:15.874Z,21.26
2023-08-11T22:32:17.905Z,21.22
2023-08-11T22:33:20.410Z,21.22
2023-08-11T22:34:22.434Z,21.22
2023-08-11T22:35:24.893Z,21.17
2023-08-11T22:36:27.009Z,21.15
2023-08-11T22:37:29.081Z,21.12
2023-08-11T22:38:31.127Z,21.10
2023-08-11T22:39:33.075Z,21.07
2023-08-11T22:40:35.162Z,21.03
2023-08-11T22:41:37.344Z,21.00
2023-08-11T22:42:39.383Z,20.96
2023-08-11T22:43:41.429Z,20.97
2023-08-11T22:44:43.507Z,20.98
2023-08-11T22:45:45.856Z,20.98
2023-08-11T22:46:48.248Z,20.99
2023-08-11T22:47:51.347Z,21.00
2023-08-11T22:48:53.457Z,21.00
2023-08-11T22:49:56.848Z,21.01
2023-08-11T22:50:58.969Z,21.01
2023-08-11T22:52:00.980Z,21.03
2023-08-11T22:53:04.278Z,21.02
2023-08-11T22:54:06.392Z,21.00
2023-08-11T22:55:09.513Z,20.96
2023-08-11T22:56:11.644Z,20.94
2023-08-11T22:57:13.974Z,20.92
2023-08-11T22:58:16.327Z,20.94
2023-08-11T22:59:20.966Z,20.96
2023-08-11T23:00:23.073Z,20.96
2023-08-11T23:01:25.327Z,20.96
2023-08-11T23:02:27.408Z,20.95
2023-08-11T23:03:29.646Z,20.94
2023-08-11T23:04:31.719Z,20.94
2023-08-11T23:05:34.252Z,20.95
2023-08-11T23:06:36.296Z,20.95
2023-08-11T23:07:41.815Z,20.96
2023-08-11T23:08:43.911Z,20.94
2023-08-11T23:09:45.900Z,20.90
2023-08-11T23:10:48.352Z,20.86
2023-08-11T23:11:50.412Z,20.85
2023-08-11T23:12:52.641Z,20.84
2023-08-11T23:13:54.663Z,20.83
2023-08-11T23:14:57.308Z,20.82
2023-08-11T23:16:01.095Z,20.80
2023-08-11T23:17:03.001Z,20.84
2023-08-11T23:18:05.498Z,20.81
2023-08-11T23:19:07.630Z,20.76
2023-08-11T23:20:10.439Z,20.73
2023-08-11T23:21:12.601Z,20.73
2023-08-11T23:22:14.671Z,20.71
2023-08-11T23:23:16.794Z,20.71
2023-08-11T23:24:19.130Z,20.74
2023-08-11T23:25:21.241Z,20.76
2023-08-11T23:26:23.301Z,20.75
2023-08-11T23:27:31.887Z,20.82
2023-08-11T23:28:34.186Z,20.80
2023-08-11T23:29:36.276Z,20.76
2023-08-11T23:30:38.281Z,20.70
2023-08-11T23:31:42.898Z,20.67
2023-08-11T23:32:45.494Z,20.64
2023-08-11T23:33:47.825Z,20.61
2023-08-11T23:34:49.801Z,20.60
2023-08-11T23:35:51.856Z,20.58
2023-08-11T23:36:53.856Z,20.54
2023-08-11T23:37:55.923Z,20.52
2023-08-11T23:38:58.031Z,20.50
2023-08-11T23:40:00.191Z,20.49
2023-08-11T23:41:02.167Z,20.46
2023-08-11T23:42:05.437Z,20.45
2023-08-11T23:43:07.911Z,20.43
2023-08-11T23:44:10.007Z,20.49
2023-08-11T23:45:13.385Z,20.48
2023-08-11T23:46:15.779Z,20.45
2023-08-11T23:47:18.312Z,20.41
2023-08-11T23:48:20.660Z,20.38
2023-08-11T23:49:22.798Z,20.34
2023-08-11T23:50:25.106Z,20.33
2023-08-11T23:51:28.615Z,20.31
2023-08-11T23:52:31.286Z,20.29
2023-08-11T23:53:33.279Z,20.27
2023-08-11T23:54:35.481Z,20.24
2023-08-11T23:55:38.193Z,20.22
2023-08-11T23:56:40.254Z,20.18
2023-08-11T23:57:42.856Z,20.14
2023-08-11T23:58:45.029Z,20.09
2023-08-11T23:59:47.082Z,20.08
